sensor_id;sensor_type;location;lat;lon;timestamp;P1;durP1;ratioP1;P2;durP2;ratioP2
38693;SDS011;24447;43.460;25.744;2023-02-19T00:01:37;20.20;;;7.03;;
38693;SDS011;24447;43.460;25.744;2023-02-19T00:04:10;15.10;;;6.55;;
38693;SDS011;24447;43.460;25.744;2023-02-19T00:06:37;17.15;;;5.05;;
38693;SDS011;24447;43.460;25.744;2023-02-19T00:09:03;12.70;;;5.22;;
38693;SDS011;24447;43.460;25.744;2023-02-19T00:11:30;16.15;;;5.25;;
38693;SDS011;24447;43.460;25.744;2023-02-19T00:13:58;16.02;;;5.07;;
38693;SDS011;24447;43.460;25.744;2023-02-19T00:16:26;18.63;;;5.38;;
38693;SDS011;24447;43.460;25.744;2023-02-19T00:21:23;17.52;;;5.75;;
38693;SDS011;24447;43.460;25.744;2023-02-19T00:23:50;17.90;;;5.82;;
38693;SDS011;24447;43.460;25.744;2023-02-19T00:26:17;21.23;;;6.30;;
38693;SDS011;24447;43.460;25.744;2023-02-19T00:28:43;24.35;;;6.57;;
38693;SDS011;24447;43.460;25.744;2023-02-19T00:33:39;17.83;;;6.72;;
38693;SDS011;24447;43.460;25.744;2023-02-19T00:36:06;20.95;;;7.43;;
38693;SDS011;24447;43.460;25.744;2023-02-19T00:38:34;21.35;;;7.22;;
38693;SDS011;24447;43.460;25.744;2023-02-19T00:41:01;27.35;;;7.20;;
38693;SDS011;24447;43.460;25.744;2023-02-19T00:44:04;23.85;;;8.05;;
38693;SDS011;24447;43.460;25.744;2023-02-19T00:46:34;48.95;;;11.60;;
38693;SDS011;24447;43.460;25.744;2023-02-19T00:49:05;43.47;;;12.30;;
38693;SDS011;24447;43.460;25.744;2023-02-19T00:51:33;51.75;;;13.30;;
38693;SDS011;24447;43.460;25.744;2023-02-19T00:54:00;36.15;;;10.00;;
38693;SDS011;24447;43.460;25.744;2023-02-19T00:56:26;23.23;;;7.78;;
38693;SDS011;24447;43.460;25.744;2023-02-19T00:58:52;22.58;;;7.05;;
38693;SDS011;24447;43.460;25.744;2023-02-19T01:01:19;29.67;;;10.27;;
38693;SDS011;24447;43.460;25.744;2023-02-19T01:03:45;17.63;;;6.75;;
38693;SDS011;24447;43.460;25.744;2023-02-19T01:06:12;14.77;;;5.30;;
38693;SDS011;24447;43.460;25.744;2023-02-19T01:08:39;14.68;;;5.15;;
38693;SDS011;24447;43.460;25.744;2023-02-19T01:11:06;18.15;;;5.68;;
38693;SDS011;24447;43.460;25.744;2023-02-19T01:13:32;24.10;;;6.50;;
38693;SDS011;24447;43.460;25.744;2023-02-19T01:16:03;11.52;;;4.35;;
38693;SDS011;24447;43.460;25.744;2023-02-19T01:18:40;18.10;;;5.80;;
38693;SDS011;24447;43.460;25.744;2023-02-19T01:21:10;11.65;;;5.13;;
38693;SDS011;24447;43.460;25.744;2023-02-19T01:23:37;18.75;;;6.18;;
38693;SDS011;24447;43.460;25.744;2023-02-19T01:26:04;17.73;;;6.40;;
38693;SDS011;24447;43.460;25.744;2023-02-19T01:28:31;19.27;;;6.45;;
38693;SDS011;24447;43.460;25.744;2023-02-19T01:31:03;12.00;;;4.93;;
38693;SDS011;24447;43.460;25.744;2023-02-19T01:33:31;20.38;;;5.68;;
38693;SDS011;24447;43.460;25.744;2023-02-19T01:35:57;18.15;;;5.90;;
38693;SDS011;24447;43.460;25.744;2023-02-19T01:38:23;16.17;;;5.30;;
38693;SDS011;24447;43.460;25.744;2023-02-19T01:40:53;16.20;;;5.93;;
38693;SDS011;24447;43.460;25.744;2023-02-19T01:43:26;16.70;;;5.97;;
38693;SDS011;24447;43.460;25.744;2023-02-19T01:45:53;21.73;;;6.30;;
38693;SDS011;24447;43.460;25.744;2023-02-19T01:48:20;19.65;;;6.45;;
38693;SDS011;24447;43.460;25.744;2023-02-19T01:53:23;20.05;;;6.30;;
38693;SDS011;24447;43.460;25.744;2023-02-19T01:55:51;19.85;;;7.18;;
38693;SDS011;24447;43.460;25.744;2023-02-19T01:58:18;14.57;;;5.45;;
38693;SDS011;24447;43.460;25.744;2023-02-19T02:00:44;19.48;;;6.47;;
38693;SDS011;24447;43.460;25.744;2023-02-19T02:03:11;20.00;;;5.60;;
38693;SDS011;24447;43.460;25.744;2023-02-19T02:08:22;16.00;;;5.70;;
38693;SDS011;24447;43.460;25.744;2023-02-19T02:11:12;21.92;;;6.80;;
38693;SDS011;24447;43.460;25.744;2023-02-19T02:13:38;19.95;;;6.07;;
38693;SDS011;24447;43.460;25.744;2023-02-19T02:19:29;16.90;;;6.57;;
38693;SDS011;24447;43.460;25.744;2023-02-19T02:36:00;17.88;;;6.47;;
38693;SDS011;24447;43.460;25.744;2023-02-19T02:38:31;15.77;;;6.03;;
38693;SDS011;24447;43.460;25.744;2023-02-19T02:40:59;26.63;;;7.15;;
38693;SDS011;24447;43.460;25.744;2023-02-19T02:43:26;21.38;;;6.18;;
38693;SDS011;24447;43.460;25.744;2023-02-19T02:45:52;17.98;;;5.07;;
38693;SDS011;24447;43.460;25.744;2023-02-19T02:53:34;24.00;;;7.75;;
38693;SDS011;24447;43.460;25.744;2023-02-19T02:56:41;16.13;;;5.82;;
38693;SDS011;24447;43.460;25.744;2023-02-19T02:59:09;17.73;;;6.50;;
38693;SDS011;24447;43.460;25.744;2023-02-19T03:04:27;17.88;;;5.88;;
38693;SDS011;24447;43.460;25.744;2023-02-19T03:06:59;20.00;;;6.18;;
38693;SDS011;24447;43.460;25.744;2023-02-19T03:09:40;15.38;;;5.63;;
38693;SDS011;24447;43.460;25.744;2023-02-19T03:12:13;16.15;;;5.55;;
38693;SDS011;24447;43.460;25.744;2023-02-19T03:15:01;17.80;;;5.22;;
38693;SDS011;24447;43.460;25.744;2023-02-19T03:17:52;20.63;;;6.85;;
38693;SDS011;24447;43.460;25.744;2023-02-19T03:20:43;21.05;;;6.53;;
38693;SDS011;24447;43.460;25.744;2023-02-19T03:23:11;19.88;;;7.00;;
38693;SDS011;24447;43.460;25.744;2023-02-19T03:25:37;15.77;;;5.57;;
38693;SDS011;24447;43.460;25.744;2023-02-19T03:28:23;13.13;;;5.88;;
38693;SDS011;24447;43.460;25.744;2023-02-19T03:31:11;15.90;;;5.22;;
38693;SDS011;24447;43.460;25.744;2023-02-19T03:33:40;12.80;;;4.70;;
38693;SDS011;24447;43.460;25.744;2023-02-19T03:36:07;20.92;;;6.32;;
38693;SDS011;24447;43.460;25.744;2023-02-19T03:38:38;18.95;;;5.85;;
38693;SDS011;24447;43.460;25.744;2023-02-19T03:41:13;12.75;;;5.53;;
38693;SDS011;24447;43.460;25.744;2023-02-19T03:43:53;20.00;;;6.85;;
38693;SDS011;24447;43.460;25.744;2023-02-19T03:46:44;15.20;;;5.35;;
38693;SDS011;24447;43.460;25.744;2023-02-19T03:49:34;20.30;;;6.85;;
38693;SDS011;24447;43.460;25.744;2023-02-19T03:52:27;19.80;;;6.45;;
38693;SDS011;24447;43.460;25.744;2023-02-19T03:55:15;19.55;;;6.25;;
38693;SDS011;24447;43.460;25.744;2023-02-19T03:57:52;16.27;;;5.72;;
38693;SDS011;24447;43.460;25.744;2023-02-19T04:01:08;13.57;;;5.90;;
38693;SDS011;24447;43.460;25.744;2023-02-19T04:03:39;18.02;;;5.57;;
38693;SDS011;24447;43.460;25.744;2023-02-19T04:06:24;16.33;;;5.22;;
38693;SDS011;24447;43.460;25.744;2023-02-19T04:08:52;15.27;;;5.10;;
38693;SDS011;24447;43.460;25.744;2023-02-19T04:11:20;17.70;;;6.30;;
38693;SDS011;24447;43.460;25.744;2023-02-19T04:13:54;16.23;;;5.93;;
38693;SDS011;24447;43.460;25.744;2023-02-19T04:16:23;15.70;;;5.95;;
38693;SDS011;24447;43.460;25.744;2023-02-19T04:18:53;18.42;;;6.30;;
38693;SDS011;24447;43.460;25.744;2023-02-19T04:21:23;16.98;;;5.88;;
38693;SDS011;24447;43.460;25.744;2023-02-19T04:23:49;26.25;;;6.80;;
38693;SDS011;24447;43.460;25.744;2023-02-19T04:26:16;21.88;;;7.15;;
38693;SDS011;24447;43.460;25.744;2023-02-19T04:28:42;20.83;;;7.05;;
38693;SDS011;24447;43.460;25.744;2023-02-19T04:31:08;18.35;;;6.53;;
38693;SDS011;24447;43.460;25.744;2023-02-19T04:33:35;34.28;;;8.35;;
38693;SDS011;24447;43.460;25.744;2023-02-19T04:36:01;25.17;;;10.27;;
38693;SDS011;24447;43.460;25.744;2023-02-19T04:38:27;18.25;;;6.25;;
38693;SDS011;24447;43.460;25.744;2023-02-19T04:40:53;44.92;;;15.98;;
38693;SDS011;24447;43.460;25.744;2023-02-19T04:43:19;46.95;;;18.38;;
38693;SDS011;24447;43.460;25.744;2023-02-19T04:45:45;48.20;;;18.40;;
38693;SDS011;24447;43.460;25.744;2023-02-19T04:48:11;33.47;;;14.95;;
38693;SDS011;24447;43.460;25.744;2023-02-19T04:50:37;36.13;;;12.55;;
38693;SDS011;24447;43.460;25.744;2023-02-19T04:53:04;30.67;;;10.63;;
38693;SDS011;24447;43.460;25.744;2023-02-19T04:55:30;36.58;;;13.10;;
38693;SDS011;24447;43.460;25.744;2023-02-19T04:57:56;46.13;;;17.63;;
38693;SDS011;24447;43.460;25.744;2023-02-19T05:00:22;98.82;;;37.50;;
38693;SDS011;24447;43.460;25.744;2023-02-19T05:02:48;117.28;;;43.30;;
38693;SDS011;24447;43.460;25.744;2023-02-19T05:05:14;248.52;;;92.50;;
38693;SDS011;24447;43.460;25.744;2023-02-19T05:07:40;160.07;;;56.05;;
38693;SDS011;24447;43.460;25.744;2023-02-19T05:10:06;112.97;;;42.83;;
38693;SDS011;24447;43.460;25.744;2023-02-19T05:12:32;76.25;;;28.88;;
38693;SDS011;24447;43.460;25.744;2023-02-19T05:14:58;86.15;;;31.10;;
38693;SDS011;24447;43.460;25.744;2023-02-19T05:17:24;98.50;;;38.38;;
38693;SDS011;24447;43.460;25.744;2023-02-19T05:19:50;176.13;;;61.13;;
38693;SDS011;24447;43.460;25.744;2023-02-19T05:22:15;163.20;;;55.85;;
38693;SDS011;24447;43.460;25.744;2023-02-19T05:24:42;166.85;;;55.63;;
38693;SDS011;24447;43.460;25.744;2023-02-19T05:27:07;188.45;;;61.42;;
38693;SDS011;24447;43.460;25.744;2023-02-19T05:29:33;284.40;;;93.25;;
38693;SDS011;24447;43.460;25.744;2023-02-19T05:32:10;285.40;;;99.10;;
38693;SDS011;24447;43.460;25.744;2023-02-19T05:34:36;319.63;;;113.75;;
38693;SDS011;24447;43.460;25.744;2023-02-19T05:37:02;116.55;;;44.55;;
38693;SDS011;24447;43.460;25.744;2023-02-19T05:39:28;61.85;;;20.88;;
38693;SDS011;24447;43.460;25.744;2023-02-19T05:41:54;38.42;;;13.02;;
38693;SDS011;24447;43.460;25.744;2023-02-19T05:44:20;32.35;;;13.40;;
38693;SDS011;24447;43.460;25.744;2023-02-19T05:46:46;26.08;;;10.00;;
38693;SDS011;24447;43.460;25.744;2023-02-19T05:49:12;26.48;;;10.73;;
38693;SDS011;24447;43.460;25.744;2023-02-19T05:51:38;37.10;;;15.23;;
38693;SDS011;24447;43.460;25.744;2023-02-19T05:54:04;31.88;;;15.90;;
38693;SDS011;24447;43.460;25.744;2023-02-19T05:58:58;22.00;;;8.15;;
38693;SDS011;24447;43.460;25.744;2023-02-19T06:01:26;20.30;;;8.55;;
38693;SDS011;24447;43.460;25.744;2023-02-19T06:03:53;20.77;;;7.68;;
38693;SDS011;24447;43.460;25.744;2023-02-19T06:06:19;22.48;;;9.20;;
38693;SDS011;24447;43.460;25.744;2023-02-19T06:08:46;21.98;;;7.57;;
38693;SDS011;24447;43.460;25.744;2023-02-19T06:11:14;21.02;;;6.97;;
38693;SDS011;24447;43.460;25.744;2023-02-19T06:13:41;18.67;;;6.40;;
38693;SDS011;24447;43.460;25.744;2023-02-19T06:16:07;20.33;;;6.18;;
38693;SDS011;24447;43.460;25.744;2023-02-19T06:18:33;25.27;;;9.50;;
38693;SDS011;24447;43.460;25.744;2023-02-19T06:21:02;17.20;;;6.75;;
38693;SDS011;24447;43.460;25.744;2023-02-19T06:23:30;24.30;;;8.27;;
38693;SDS011;24447;43.460;25.744;2023-02-19T06:28:43;20.10;;;7.15;;
38693;SDS011;24447;43.460;25.744;2023-02-19T06:31:09;19.05;;;7.18;;
38693;SDS011;24447;43.460;25.744;2023-02-19T06:33:35;25.25;;;9.68;;
38693;SDS011;24447;43.460;25.744;2023-02-19T06:36:04;24.23;;;9.52;;
38693;SDS011;24447;43.460;25.744;2023-02-19T06:38:31;19.00;;;7.07;;
38693;SDS011;24447;43.460;25.744;2023-02-19T06:41:01;29.23;;;8.68;;
38693;SDS011;24447;43.460;25.744;2023-02-19T06:43:28;33.03;;;12.50;;
38693;SDS011;24447;43.460;25.744;2023-02-19T06:45:56;28.77;;;12.43;;
38693;SDS011;24447;43.460;25.744;2023-02-19T06:48:24;24.35;;;9.18;;
38693;SDS011;24447;43.460;25.744;2023-02-19T06:50:51;23.98;;;9.18;;
38693;SDS011;24447;43.460;25.744;2023-02-19T06:53:17;49.92;;;16.85;;
38693;SDS011;24447;43.460;25.744;2023-02-19T06:55:43;95.03;;;27.25;;
38693;SDS011;24447;43.460;25.744;2023-02-19T06:58:09;47.28;;;16.77;;
38693;SDS011;24447;43.460;25.744;2023-02-19T07:00:35;32.78;;;11.18;;
38693;SDS011;24447;43.460;25.744;2023-02-19T07:03:01;46.53;;;14.43;;
38693;SDS011;24447;43.460;25.744;2023-02-19T07:05:27;44.65;;;12.73;;
38693;SDS011;24447;43.460;25.744;2023-02-19T07:07:53;21.38;;;7.65;;
38693;SDS011;24447;43.460;25.744;2023-02-19T07:10:19;33.22;;;9.93;;
38693;SDS011;24447;43.460;25.744;2023-02-19T07:12:45;28.30;;;10.15;;
38693;SDS011;24447;43.460;25.744;2023-02-19T07:15:11;38.92;;;13.27;;
38693;SDS011;24447;43.460;25.744;2023-02-19T07:17:36;33.38;;;10.70;;
38693;SDS011;24447;43.460;25.744;2023-02-19T07:20:02;42.17;;;13.60;;
38693;SDS011;24447;43.460;25.744;2023-02-19T07:22:29;24.70;;;9.02;;
38693;SDS011;24447;43.460;25.744;2023-02-19T07:24:54;18.23;;;7.22;;
38693;SDS011;24447;43.460;25.744;2023-02-19T07:27:20;29.63;;;10.10;;
38693;SDS011;24447;43.460;25.744;2023-02-19T07:29:46;58.78;;;16.77;;
38693;SDS011;24447;43.460;25.744;2023-02-19T07:32:12;62.33;;;20.35;;
38693;SDS011;24447;43.460;25.744;2023-02-19T07:34:38;74.28;;;21.00;;
38693;SDS011;24447;43.460;25.744;2023-02-19T07:37:04;47.10;;;17.17;;
38693;SDS011;24447;43.460;25.744;2023-02-19T07:39:30;30.33;;;10.77;;
38693;SDS011;24447;43.460;25.744;2023-02-19T07:41:56;24.15;;;8.70;;
38693;SDS011;24447;43.460;25.744;2023-02-19T07:44:22;31.60;;;11.15;;
38693;SDS011;24447;43.460;25.744;2023-02-19T07:46:48;21.88;;;7.85;;
38693;SDS011;24447;43.460;25.744;2023-02-19T07:49:14;34.53;;;12.23;;
38693;SDS011;24447;43.460;25.744;2023-02-19T07:51:40;24.20;;;9.68;;
38693;SDS011;24447;43.460;25.744;2023-02-19T07:54:06;30.58;;;12.48;;
38693;SDS011;24447;43.460;25.744;2023-02-19T07:56:32;23.92;;;8.88;;
38693;SDS011;24447;43.460;25.744;2023-02-19T07:58:58;28.23;;;11.25;;
38693;SDS011;24447;43.460;25.744;2023-02-19T08:01:25;23.75;;;9.18;;
38693;SDS011;24447;43.460;25.744;2023-02-19T08:04:10;25.15;;;9.60;;
38693;SDS011;24447;43.460;25.744;2023-02-19T08:06:37;27.70;;;11.18;;
38693;SDS011;24447;43.460;25.744;2023-02-19T08:09:04;42.22;;;10.57;;
38693;SDS011;24447;43.460;25.744;2023-02-19T08:11:30;17.80;;;7.50;;
38693;SDS011;24447;43.460;25.744;2023-02-19T08:14:15;22.00;;;8.13;;
38693;SDS011;24447;43.460;25.744;2023-02-19T08:16:47;27.45;;;10.20;;
38693;SDS011;24447;43.460;25.744;2023-02-19T08:19:17;22.35;;;9.52;;
38693;SDS011;24447;43.460;25.744;2023-02-19T08:21:43;25.15;;;9.27;;
38693;SDS011;24447;43.460;25.744;2023-02-19T08:24:09;19.50;;;7.40;;
38693;SDS011;24447;43.460;25.744;2023-02-19T08:26:35;22.75;;;6.95;;
38693;SDS011;24447;43.460;25.744;2023-02-19T08:29:02;19.42;;;7.68;;
38693;SDS011;24447;43.460;25.744;2023-02-19T08:31:29;18.88;;;7.53;;
38693;SDS011;24447;43.460;25.744;2023-02-19T08:33:55;16.40;;;6.72;;
38693;SDS011;24447;43.460;25.744;2023-02-19T08:36:21;26.20;;;7.55;;
38693;SDS011;24447;43.460;25.744;2023-02-19T08:38:47;16.17;;;7.15;;
38693;SDS011;24447;43.460;25.744;2023-02-19T08:41:13;15.57;;;6.88;;
38693;SDS011;24447;43.460;25.744;2023-02-19T08:43:39;17.60;;;5.93;;
38693;SDS011;24447;43.460;25.744;2023-02-19T08:46:06;20.20;;;8.30;;
38693;SDS011;24447;43.460;25.744;2023-02-19T08:48:34;13.18;;;5.80;;
38693;SDS011;24447;43.460;25.744;2023-02-19T08:51:01;14.85;;;6.38;;
38693;SDS011;24447;43.460;25.744;2023-02-19T08:53:29;15.18;;;5.90;;
38693;SDS011;24447;43.460;25.744;2023-02-19T08:55:56;17.70;;;6.38;;
38693;SDS011;24447;43.460;25.744;2023-02-19T08:58:22;16.75;;;6.75;;
38693;SDS011;24447;43.460;25.744;2023-02-19T09:00:50;17.17;;;7.03;;
38693;SDS011;24447;43.460;25.744;2023-02-19T09:03:16;21.95;;;6.28;;
38693;SDS011;24447;43.460;25.744;2023-02-19T09:05:42;17.30;;;6.70;;
38693;SDS011;24447;43.460;25.744;2023-02-19T09:08:10;15.43;;;6.68;;
38693;SDS011;24447;43.460;25.744;2023-02-19T09:10:37;25.00;;;9.38;;
38693;SDS011;24447;43.460;25.744;2023-02-19T09:13:03;22.67;;;10.50;;
38693;SDS011;24447;43.460;25.744;2023-02-19T09:15:29;29.48;;;12.50;;
38693;SDS011;24447;43.460;25.744;2023-02-19T09:17:56;23.10;;;9.50;;
38693;SDS011;24447;43.460;25.744;2023-02-19T09:20:22;24.20;;;11.05;;
38693;SDS011;24447;43.460;25.744;2023-02-19T09:22:48;18.65;;;7.95;;
38693;SDS011;24447;43.460;25.744;2023-02-19T09:25:14;23.00;;;6.93;;
38693;SDS011;24447;43.460;25.744;2023-02-19T09:27:40;16.05;;;5.43;;
38693;SDS011;24447;43.460;25.744;2023-02-19T09:30:06;12.00;;;4.45;;
38693;SDS011;24447;43.460;25.744;2023-02-19T09:32:33;10.73;;;4.72;;
38693;SDS011;24447;43.460;25.744;2023-02-19T09:34:59;14.40;;;5.03;;
38693;SDS011;24447;43.460;25.744;2023-02-19T09:37:25;11.20;;;3.85;;
38693;SDS011;24447;43.460;25.744;2023-02-19T09:39:52;8.18;;;3.72;;
38693;SDS011;24447;43.460;25.744;2023-02-19T09:42:26;10.55;;;3.90;;
38693;SDS011;24447;43.460;25.744;2023-02-19T09:44:54;8.32;;;4.38;;
38693;SDS011;24447;43.460;25.744;2023-02-19T09:47:23;14.20;;;4.00;;
38693;SDS011;24447;43.460;25.744;2023-02-19T09:49:51;6.75;;;3.42;;
38693;SDS011;24447;43.460;25.744;2023-02-19T09:57:43;20.23;;;6.63;;
38693;SDS011;24447;43.460;25.744;2023-02-19T10:02:52;12.00;;;5.05;;
38693;SDS011;24447;43.460;25.744;2023-02-19T10:05:19;19.25;;;6.38;;
38693;SDS011;24447;43.460;25.744;2023-02-19T10:07:47;10.57;;;4.63;;
38693;SDS011;24447;43.460;25.744;2023-02-19T10:12:42;8.30;;;3.83;;
38693;SDS011;24447;43.460;25.744;2023-02-19T10:17:40;7.40;;;3.60;;
38693;SDS011;24447;43.460;25.744;2023-02-19T10:20:09;11.50;;;3.75;;
38693;SDS011;24447;43.460;25.744;2023-02-19T10:22:40;11.52;;;3.30;;
38693;SDS011;24447;43.460;25.744;2023-02-19T10:25:06;8.77;;;3.15;;
38693;SDS011;24447;43.460;25.744;2023-02-19T10:27:34;10.00;;;3.42;;
38693;SDS011;24447;43.460;25.744;2023-02-19T10:30:00;5.50;;;2.83;;
38693;SDS011;24447;43.460;25.744;2023-02-19T10:32:26;7.20;;;3.53;;
38693;SDS011;24447;43.460;25.744;2023-02-19T10:35:07;6.05;;;3.45;;
38693;SDS011;24447;43.460;25.744;2023-02-19T10:37:34;14.00;;;3.97;;
38693;SDS011;24447;43.460;25.744;2023-02-19T10:40:01;9.77;;;3.75;;
38693;SDS011;24447;43.460;25.744;2023-02-19T10:42:27;14.07;;;4.53;;
38693;SDS011;24447;43.460;25.744;2023-02-19T10:44:59;12.30;;;4.78;;
38693;SDS011;24447;43.460;25.744;2023-02-19T10:47:27;12.10;;;4.50;;
38693;SDS011;24447;43.460;25.744;2023-02-19T10:49:56;13.20;;;5.30;;
38693;SDS011;24447;43.460;25.744;2023-02-19T10:55:35;7.43;;;3.60;;
38693;SDS011;24447;43.460;25.744;2023-02-19T10:57:39;7.05;;;3.55;;
38693;SDS011;24447;43.460;25.744;2023-02-19T11:02:40;6.72;;;3.20;;
38693;SDS011;24447;43.460;25.744;2023-02-19T11:08:16;9.02;;;3.30;;
38693;SDS011;24447;43.460;25.744;2023-02-19T11:10:27;6.35;;;3.10;;
38693;SDS011;24447;43.460;25.744;2023-02-19T11:13:02;19.60;;;5.18;;
38693;SDS011;24447;43.460;25.744;2023-02-19T11:15:33;11.80;;;4.43;;
38693;SDS011;24447;43.460;25.744;2023-02-19T11:18:04;12.52;;;3.92;;
38693;SDS011;24447;43.460;25.744;2023-02-19T11:20:55;9.90;;;3.65;;
38693;SDS011;24447;43.460;25.744;2023-02-19T11:25:55;7.20;;;3.30;;
38693;SDS011;24447;43.460;25.744;2023-02-19T11:28:25;8.82;;;3.03;;
38693;SDS011;24447;43.460;25.744;2023-02-19T11:33:47;10.27;;;3.35;;
38693;SDS011;24447;43.460;25.744;2023-02-19T11:36:26;6.10;;;2.78;;
38693;SDS011;24447;43.460;25.744;2023-02-19T11:49:52;9.98;;;4.53;;
38693;SDS011;24447;43.460;25.744;2023-02-19T11:55:27;7.30;;;3.20;;
38693;SDS011;24447;43.460;25.744;2023-02-19T12:01:08;10.27;;;4.13;;
38693;SDS011;24447;43.460;25.744;2023-02-19T12:03:58;14.32;;;5.63;;
38693;SDS011;24447;43.460;25.744;2023-02-19T12:14:51;6.22;;;2.95;;
38693;SDS011;24447;43.460;25.744;2023-02-19T12:26:28;8.45;;;3.17;;
38693;SDS011;24447;43.460;25.744;2023-02-19T12:29:04;18.83;;;5.95;;
38693;SDS011;24447;43.460;25.744;2023-02-19T12:34:44;11.77;;;3.45;;
38693;SDS011;24447;43.460;25.744;2023-02-19T12:45:27;11.23;;;4.45;;
38693;SDS011;24447;43.460;25.744;2023-02-19T12:47:58;8.25;;;3.50;;
38693;SDS011;24447;43.460;25.744;2023-02-19T12:50:28;10.95;;;4.35;;
38693;SDS011;24447;43.460;25.744;2023-02-19T12:53:04;10.07;;;4.65;;
38693;SDS011;24447;43.460;25.744;2023-02-19T12:55:40;8.27;;;3.80;;
38693;SDS011;24447;43.460;25.744;2023-02-19T12:58:10;16.30;;;5.82;;
38693;SDS011;24447;43.460;25.744;2023-02-19T13:00:57;17.70;;;4.90;;
38693;SDS011;24447;43.460;25.744;2023-02-19T13:06:29;18.00;;;5.07;;
38693;SDS011;24447;43.460;25.744;2023-02-19T13:09:02;4.05;;;2.90;;
38693;SDS011;24447;43.460;25.744;2023-02-19T13:11:42;13.80;;;4.28;;
38693;SDS011;24447;43.460;25.744;2023-02-19T13:16:49;4.78;;;2.42;;
38693;SDS011;24447;43.460;25.744;2023-02-19T13:19:19;4.45;;;2.60;;
38693;SDS011;24447;43.460;25.744;2023-02-19T13:21:46;5.32;;;2.65;;
38693;SDS011;24447;43.460;25.744;2023-02-19T13:24:38;10.40;;;2.85;;
38693;SDS011;24447;43.460;25.744;2023-02-19T13:30:09;6.50;;;2.55;;
38693;SDS011;24447;43.460;25.744;2023-02-19T13:33:17;5.75;;;2.38;;
38693;SDS011;24447;43.460;25.744;2023-02-19T13:37:52;8.25;;;3.10;;
38693;SDS011;24447;43.460;25.744;2023-02-19T13:40:35;10.82;;;3.88;;
38693;SDS011;24447;43.460;25.744;2023-02-19T13:43:05;9.02;;;4.30;;
38693;SDS011;24447;43.460;25.744;2023-02-19T13:47:59;16.98;;;6.10;;
38693;SDS011;24447;43.460;25.744;2023-02-19T13:50:31;19.30;;;6.05;;
38693;SDS011;24447;43.460;25.744;2023-02-19T13:52:58;14.82;;;4.40;;
38693;SDS011;24447;43.460;25.744;2023-02-19T14:01:10;14.98;;;4.80;;
38693;SDS011;24447;43.460;25.744;2023-02-19T14:06:04;24.38;;;6.10;;
38693;SDS011;24447;43.460;25.744;2023-02-19T14:11:16;26.08;;;7.57;;
38693;SDS011;24447;43.460;25.744;2023-02-19T14:19:14;18.48;;;5.22;;
38693;SDS011;24447;43.460;25.744;2023-02-19T14:21:41;17.85;;;5.63;;
38693;SDS011;24447;43.460;25.744;2023-02-19T14:24:11;51.95;;;17.92;;
38693;SDS011;24447;43.460;25.744;2023-02-19T14:29:05;36.65;;;11.10;;
38693;SDS011;24447;43.460;25.744;2023-02-19T14:31:33;21.50;;;6.63;;
38693;SDS011;24447;43.460;25.744;2023-02-19T14:34:05;21.20;;;5.47;;
38693;SDS011;24447;43.460;25.744;2023-02-19T14:36:48;23.30;;;7.40;;
38693;SDS011;24447;43.460;25.744;2023-02-19T14:39:17;43.38;;;12.77;;
38693;SDS011;24447;43.460;25.744;2023-02-19T14:42:07;36.42;;;12.82;;
38693;SDS011;24447;43.460;25.744;2023-02-19T14:47:18;41.05;;;12.50;;
38693;SDS011;24447;43.460;25.744;2023-02-19T14:52:20;42.03;;;14.85;;
38693;SDS011;24447;43.460;25.744;2023-02-19T14:57:17;30.95;;;9.77;;
38693;SDS011;24447;43.460;25.744;2023-02-19T14:59:54;26.23;;;9.27;;
38693;SDS011;24447;43.460;25.744;2023-02-19T15:02:25;34.38;;;11.43;;
38693;SDS011;24447;43.460;25.744;2023-02-19T15:04:52;47.50;;;21.45;;
38693;SDS011;24447;43.460;25.744;2023-02-19T15:07:28;57.20;;;23.23;;
38693;SDS011;24447;43.460;25.744;2023-02-19T15:09:57;46.00;;;15.80;;
38693;SDS011;24447;43.460;25.744;2023-02-19T15:14:55;30.77;;;13.00;;
38693;SDS011;24447;43.460;25.744;2023-02-19T15:17:25;33.33;;;12.98;;
38693;SDS011;24447;43.460;25.744;2023-02-19T15:19:53;26.20;;;10.23;;
38693;SDS011;24447;43.460;25.744;2023-02-19T15:22:21;22.75;;;7.72;;
38693;SDS011;24447;43.460;25.744;2023-02-19T15:24:48;22.63;;;7.50;;
38693;SDS011;24447;43.460;25.744;2023-02-19T15:27:18;26.83;;;8.88;;
38693;SDS011;24447;43.460;25.744;2023-02-19T15:29:48;20.25;;;7.00;;
38693;SDS011;24447;43.460;25.744;2023-02-19T15:32:16;25.13;;;8.02;;
38693;SDS011;24447;43.460;25.744;2023-02-19T15:35:00;15.68;;;6.82;;
38693;SDS011;24447;43.460;25.744;2023-02-19T15:37:28;16.63;;;4.93;;
38693;SDS011;24447;43.460;25.744;2023-02-19T15:39:56;17.65;;;6.75;;
38693;SDS011;24447;43.460;25.744;2023-02-19T15:42:27;18.80;;;6.32;;
38693;SDS011;24447;43.460;25.744;2023-02-19T15:50:10;23.70;;;6.72;;
38693;SDS011;24447;43.460;25.744;2023-02-19T15:53:25;18.88;;;6.70;;
38693;SDS011;24447;43.460;25.744;2023-02-19T15:58:19;23.42;;;6.90;;
38693;SDS011;24447;43.460;25.744;2023-02-19T16:00:53;25.98;;;7.22;;
38693;SDS011;24447;43.460;25.744;2023-02-19T16:03:21;20.70;;;9.27;;
38693;SDS011;24447;43.460;25.744;2023-02-19T16:06:05;16.52;;;6.63;;
38693;SDS011;24447;43.460;25.744;2023-02-19T16:08:39;29.20;;;10.10;;
38693;SDS011;24447;43.460;25.744;2023-02-19T16:12:27;25.63;;;8.95;;
38693;SDS011;24447;43.460;25.744;2023-02-19T16:14:29;21.15;;;7.90;;
38693;SDS011;24447;43.460;25.744;2023-02-19T16:22:12;20.38;;;8.30;;
38693;SDS011;24447;43.460;25.744;2023-02-19T16:24:41;14.82;;;6.40;;
38693;SDS011;24447;43.460;25.744;2023-02-19T16:27:09;16.00;;;6.93;;
38693;SDS011;24447;43.460;25.744;2023-02-19T16:29:37;27.42;;;10.43;;
38693;SDS011;24447;43.460;25.744;2023-02-19T16:32:04;15.13;;;5.18;;
38693;SDS011;24447;43.460;25.744;2023-02-19T16:34:44;19.95;;;5.30;;
38693;SDS011;24447;43.460;25.744;2023-02-19T16:42:35;20.08;;;7.63;;
38693;SDS011;24447;43.460;25.744;2023-02-19T16:45:05;66.33;;;19.33;;
38693;SDS011;24447;43.460;25.744;2023-02-19T16:47:36;20.58;;;8.32;;
38693;SDS011;24447;43.460;25.744;2023-02-19T16:50:13;24.75;;;8.02;;
38693;SDS011;24447;43.460;25.744;2023-02-19T16:52:51;24.35;;;7.72;;
38693;SDS011;24447;43.460;25.744;2023-02-19T16:55:27;43.20;;;10.55;;
38693;SDS011;24447;43.460;25.744;2023-02-19T16:57:54;38.80;;;15.60;;
38693;SDS011;24447;43.460;25.744;2023-02-19T17:00:21;32.03;;;9.77;;
38693;SDS011;24447;43.460;25.744;2023-02-19T17:02:53;21.55;;;7.60;;
38693;SDS011;24447;43.460;25.744;2023-02-19T17:05:20;28.08;;;8.60;;
38693;SDS011;24447;43.460;25.744;2023-02-19T17:07:48;28.55;;;11.15;;
38693;SDS011;24447;43.460;25.744;2023-02-19T17:10:15;19.95;;;7.20;;
38693;SDS011;24447;43.460;25.744;2023-02-19T17:12:45;18.65;;;6.75;;
38693;SDS011;24447;43.460;25.744;2023-02-19T17:15:11;21.02;;;5.15;;
38693;SDS011;24447;43.460;25.744;2023-02-19T17:17:37;18.33;;;5.90;;
38693;SDS011;24447;43.460;25.744;2023-02-19T17:22:41;23.50;;;9.10;;
38693;SDS011;24447;43.460;25.744;2023-02-19T17:25:08;19.85;;;8.13;;
38693;SDS011;24447;43.460;25.744;2023-02-19T17:27:34;18.52;;;5.47;;
38693;SDS011;24447;43.460;25.744;2023-02-19T17:30:00;16.80;;;5.30;;
38693;SDS011;24447;43.460;25.744;2023-02-19T17:32:26;14.40;;;5.22;;